createdAt,value
2024-05-09T00:01:26.501Z,3.28
2024-05-09T00:03:56.262Z,3.67
2024-05-09T00:06:28.660Z,3.05
2024-05-09T00:08:58.395Z,3.90
2024-05-09T00:11:28.197Z,2.88
2024-05-09T00:13:58.000Z,2.45
2024-05-09T00:16:27.739Z,2.80
2024-05-09T00:18:57.539Z,3.08
2024-05-09T00:21:29.816Z,3.20
2024-05-09T00:23:59.622Z,2.80
2024-05-09T00:26:29.447Z,2.65
2024-05-09T00:28:59.325Z,2.60
2024-05-09T00:31:29.190Z,2.75
2024-05-09T00:33:59.028Z,2.55
2024-05-09T00:36:31.555Z,3.35
2024-05-09T00:39:01.391Z,3.15
2024-05-09T00:41:31.520Z,2.65
2024-05-09T00:44:02.357Z,2.75
2024-05-09T00:46:32.208Z,2.70
2024-05-09T00:49:02.277Z,2.72
2024-05-09T00:51:34.928Z,3.67
2024-05-09T00:54:05.478Z,3.67
2024-05-09T00:56:37.581Z,3.20
2024-05-09T00:59:07.651Z,3.05
2024-05-09T01:01:37.794Z,3.30
2024-05-09T01:09:16.998Z,3.78
2024-05-09T01:12:50.192Z,3.08
2024-05-09T01:15:20.034Z,3.20
2024-05-09T01:17:50.467Z,3.55
2024-05-09T01:20:31.549Z,3.10
2024-05-09T01:23:12.692Z,3.03
2024-05-09T01:25:43.824Z,3.58
2024-05-09T01:28:14.013Z,2.90
2024-05-09T01:30:43.699Z,3.13
2024-05-09T01:33:14.043Z,2.85
2024-05-09T01:35:44.228Z,3.67
2024-05-09T01:38:17.359Z,3.30
2024-05-09T01:40:47.923Z,3.50
2024-05-09T01:43:18.110Z,3.22
2024-05-09T01:45:48.539Z,3.42
2024-05-09T01:48:18.694Z,3.58
2024-05-09T01:50:48.737Z,3.55
2024-05-09T01:53:21.256Z,4.15
2024-05-09T01:55:51.113Z,3.15
2024-05-09T01:58:23.436Z,2.90
2024-05-09T02:00:53.295Z,3.53
2024-05-09T02:03:23.837Z,3.20
2024-05-09T02:05:53.811Z,3.75
2024-05-09T02:08:26.205Z,4.15
2024-05-09T02:10:56.443Z,3.97
2024-05-09T02:13:26.296Z,3.22
2024-05-09T02:15:56.199Z,4.15
2024-05-09T02:18:26.063Z,3.50
2024-05-09T02:20:56.199Z,3.63
2024-05-09T02:23:28.903Z,3.05
2024-05-09T02:25:58.983Z,3.88
2024-05-09T02:28:28.784Z,3.47
2024-05-09T02:30:59.995Z,4.00
2024-05-09T02:33:31.087Z,3.83
2024-05-09T02:36:01.528Z,3.30
2024-05-09T02:38:32.281Z,3.67
2024-05-09T02:41:02.223Z,3.70
2024-05-09T02:43:29.523Z,3.58
2024-05-09T02:46:01.719Z,4.30
2024-05-09T02:48:29.214Z,3.55
2024-05-09T02:50:59.939Z,4.30
2024-05-09T02:53:32.803Z,3.35
2024-05-09T02:56:02.987Z,3.70
2024-05-09T02:58:30.526Z,2.80
2024-05-09T03:01:00.341Z,3.75
2024-05-09T03:03:27.819Z,3.30
2024-05-09T03:05:57.613Z,4.28
2024-05-09T03:08:25.032Z,3.58
2024-05-09T03:10:57.476Z,3.08
2024-05-09T03:13:24.867Z,4.13
2024-05-09T03:15:54.608Z,4.05
2024-05-09T03:18:21.884Z,3.30
2024-05-09T03:20:51.893Z,3.97
2024-05-09T03:23:19.196Z,3.40
2024-05-09T03:25:56.663Z,3.25
2024-05-09T03:28:26.544Z,3.38
2024-05-09T03:30:57.206Z,4.47
2024-05-09T03:33:24.664Z,3.22
2024-05-09T03:35:54.618Z,3.72
2024-05-09T03:38:24.403Z,3.33
2024-05-09T03:40:54.359Z,3.83
2024-05-09T03:43:21.575Z,4.00
2024-05-09T03:45:53.999Z,3.58
2024-05-09T03:48:21.633Z,3.85
2024-05-09T03:50:51.830Z,4.13
2024-05-09T03:53:19.922Z,4.57
2024-05-09T03:55:50.356Z,3.72
2024-05-09T03:58:19.057Z,3.30
2024-05-09T04:00:49.038Z,4.03
2024-05-09T04:03:20.664Z,3.95
2024-05-09T04:05:50.974Z,4.22
2024-05-09T04:08:20.084Z,4.38
2024-05-09T04:10:50.387Z,4.10
2024-05-09T04:13:18.018Z,4.55
2024-05-09T04:15:47.968Z,4.28
2024-05-09T04:18:19.729Z,3.80
2024-05-09T04:20:49.608Z,3.17
2024-05-09T04:23:16.893Z,3.85
2024-05-09T04:25:48.156Z,3.92
2024-05-09T04:28:16.576Z,4.07
2024-05-09T04:30:46.974Z,3.28
2024-05-09T04:33:15.307Z,3.38
2024-05-09T04:35:49.755Z,3.40
2024-05-09T04:38:17.583Z,2.90
2024-05-09T04:40:49.052Z,3.10
2024-05-09T04:43:19.166Z,2.85
2024-05-09T04:45:50.240Z,3.17
2024-05-09T04:48:18.004Z,3.38
2024-05-09T04:50:51.294Z,4.00
2024-05-09T04:53:21.271Z,3.15
2024-05-09T04:55:51.197Z,3.15
2024-05-09T04:58:18.879Z,3.35
2024-05-09T05:00:48.974Z,3.53
2024-05-09T05:03:17.151Z,3.28
2024-05-09T05:05:52.066Z,3.00
2024-05-09T05:08:23.748Z,4.05
2024-05-09T05:10:54.984Z,3.47
2024-05-09T05:13:24.167Z,4.40
2024-05-09T05:15:58.583Z,3.75
2024-05-09T05:18:29.233Z,3.60
2024-05-09T05:21:06.412Z,3.60
2024-05-09T05:23:37.502Z,3.72
2024-05-09T05:26:09.741Z,2.90
2024-05-09T05:28:38.184Z,4.28
2024-05-09T05:31:08.616Z,3.60
2024-05-09T05:33:36.753Z,3.72
2024-05-09T05:36:11.756Z,4.00
2024-05-09T05:38:41.974Z,3.65
2024-05-09T05:41:10.609Z,3.85
2024-05-09T05:43:42.005Z,3.92
2024-05-09T05:46:10.999Z,4.25
2024-05-09T05:48:41.322Z,4.40
2024-05-09T05:51:11.767Z,4.10
2024-05-09T05:53:41.965Z,4.13
2024-05-09T05:56:09.914Z,4.45
2024-05-09T05:58:43.270Z,4.28
2024-05-09T06:01:11.227Z,3.65
2024-05-09T06:03:41.725Z,3.85
2024-05-09T06:06:14.199Z,4.35
2024-05-09T06:08:46.230Z,5.13
2024-05-09T06:11:14.072Z,4.55
2024-05-09T06:13:45.967Z,3.95
2024-05-09T06:16:14.598Z,4.38
2024-05-09T06:18:44.659Z,4.47
2024-05-09T06:21:16.718Z,4.07
2024-05-09T06:23:48.674Z,4.22
2024-05-09T06:26:16.267Z,4.45
2024-05-09T06:28:46.947Z,3.85
2024-05-09T06:31:15.565Z,4.25
2024-05-09T06:33:46.040Z,4.78
2024-05-09T06:36:16.200Z,4.38
2024-05-09T06:38:46.118Z,4.20
2024-05-09T06:41:13.432Z,4.70
2024-05-09T06:43:43.342Z,3.70
2024-05-09T06:46:12.757Z,3.88
2024-05-09T06:48:42.710Z,3.60
2024-05-09T06:51:10.154Z,3.40
2024-05-09T06:53:43.223Z,4.03
2024-05-09T06:56:14.213Z,4.55
2024-05-09T06:58:44.410Z,4.85
2024-05-09T07:01:14.337Z,3.90
2024-05-09T07:03:44.584Z,4.20
2024-05-09T07:06:12.515Z,4.10
2024-05-09T07:08:44.861Z,3.97
2024-05-09T07:11:12.416Z,4.47
2024-05-09T07:13:42.301Z,3.63
2024-05-09T07:16:09.479Z,3.60
2024-05-09T07:18:39.696Z,4.18
2024-05-09T07:21:07.180Z,3.67
2024-05-09T07:23:37.625Z,3.53
2024-05-09T07:26:07.758Z,3.50
2024-05-09T07:28:37.841Z,4.78
2024-05-09T07:31:05.435Z,4.40
2024-05-09T07:33:35.686Z,4.70
2024-05-09T07:36:03.238Z,4.50
2024-05-09T07:38:33.339Z,4.05
2024-05-09T07:41:00.683Z,5.38
2024-05-09T07:43:33.126Z,4.65
2024-05-09T07:47:04.539Z,5.13
2024-05-09T07:54:00.977Z,4.28
2024-05-09T07:56:32.116Z,3.90
2024-05-09T07:59:01.990Z,4.18
2024-05-09T08:01:31.915Z,3.65
2024-05-09T08:03:59.274Z,3.70
2024-05-09T08:06:29.229Z,3.90
2024-05-09T08:08:57.915Z,4.10
2024-05-09T08:11:29.463Z,4.05
2024-05-09T08:13:56.669Z,3.93
2024-05-09T08:16:29.186Z,4.07
2024-05-09T08:18:57.872Z,3.67
2024-05-09T08:21:30.631Z,3.67
2024-05-09T08:23:57.822Z,3.05
2024-05-09T08:26:27.534Z,3.92
2024-05-09T08:28:55.045Z,4.07
2024-05-09T08:31:24.919Z,3.00
2024-05-09T08:33:56.528Z,3.45
2024-05-09T08:36:26.675Z,2.97
2024-05-09T08:38:56.945Z,3.08
2024-05-09T08:41:28.040Z,3.38
2024-05-09T08:43:55.183Z,3.20
2024-05-09T08:46:25.018Z,3.53
2024-05-09T08:48:56.482Z,3.00
2024-05-09T08:51:26.499Z,3.38
2024-05-09T08:53:53.738Z,3.28
2024-05-09T08:56:24.231Z,3.20
2024-05-09T08:58:56.540Z,2.63
2024-05-09T09:01:26.892Z,2.78
2024-05-09T09:04:01.861Z,3.63
2024-05-09T09:06:37.978Z,3.00
2024-05-09T09:09:06.785Z,2.05
2024-05-09T09:11:36.822Z,2.22
2024-05-09T09:14:04.094Z,2.10
2024-05-09T09:16:37.518Z,2.08
2024-05-09T09:19:07.686Z,2.15
2024-05-09T09:21:40.115Z,2.38
2024-05-09T09:24:09.938Z,2.65
2024-05-09T09:26:41.698Z,2.25
2024-05-09T09:29:08.981Z,2.25
2024-05-09T09:31:39.503Z,2.30
2024-05-09T09:34:10.061Z,3.42
2024-05-09T09:36:41.727Z,3.03
2024-05-09T09:39:09.822Z,2.60
2024-05-09T09:41:40.746Z,4.10
2024-05-09T09:44:09.795Z,3.13
2024-05-09T09:46:40.848Z,3.45
2024-05-09T09:49:12.271Z,3.20
2024-05-09T09:51:44.770Z,3.28
2024-05-09T09:54:14.933Z,2.97
2024-05-09T09:56:48.748Z,2.95
2024-05-09T09:59:16.868Z,4.47
2024-05-09T10:01:47.956Z,4.15
2024-05-09T10:04:18.824Z,3.97
2024-05-09T10:06:53.341Z,4.35
2024-05-09T10:09:21.693Z,3.63
2024-05-09T10:11:59.736Z,4.22
2024-05-09T10:14:30.803Z,4.03
2024-05-09T10:17:07.335Z,3.30
2024-05-09T10:19:37.356Z,4.05
2024-05-09T10:22:08.861Z,3.70
2024-05-09T10:24:49.558Z,3.55
2024-05-09T10:27:27.818Z,4.50
2024-05-09T10:29:56.174Z,4.78
2024-05-09T10:32:26.491Z,4.15
2024-05-09T10:35:07.079Z,3.90
2024-05-09T10:37:37.718Z,3.22
2024-05-09T10:40:11.959Z,3.88
2024-05-09T10:42:47.471Z,3.35
2024-05-09T10:45:16.360Z,3.65
2024-05-09T10:47:46.655Z,4.03
2024-05-09T10:50:25.044Z,3.42
2024-05-09T10:52:58.175Z,2.78
2024-05-09T10:55:25.449Z,2.88
2024-05-09T10:57:55.725Z,2.72
2024-05-09T11:00:30.241Z,4.32
2024-05-09T11:03:04.211Z,3.33
2024-05-09T11:05:35.833Z,3.42
2024-05-09T11:08:06.387Z,3.88
2024-05-09T11:10:34.635Z,3.75
2024-05-09T11:13:04.969Z,4.32
2024-05-09T11:15:40.006Z,3.15
2024-05-09T11:18:10.361Z,4.57
2024-05-09T11:20:40.304Z,4.25
2024-05-09T11:23:15.211Z,3.70
2024-05-09T11:25:48.921Z,4.07
2024-05-09T11:28:20.436Z,3.78
2024-05-09T11:30:48.800Z,3.13
2024-05-09T11:33:20.017Z,4.13
2024-05-09T11:35:50.319Z,2.90
2024-05-09T11:38:20.351Z,3.15
2024-05-09T11:40:50.375Z,3.40
2024-05-09T11:43:21.339Z,3.25
2024-05-09T11:45:51.525Z,3.30
2024-05-09T11:48:21.593Z,3.33
2024-05-09T11:50:51.946Z,3.05
2024-05-09T11:53:21.748Z,2.40
2024-05-09T11:55:49.397Z,2.38
2024-05-09T11:58:21.431Z,2.20
2024-05-09T12:00:49.111Z,1.98
2024-05-09T12:03:19.033Z,2.90
2024-05-09T12:05:46.692Z,3.05
2024-05-09T12:08:19.307Z,3.20
2024-05-09T12:10:46.934Z,2.95
2024-05-09T12:13:16.883Z,2.58
2024-05-09T12:15:44.199Z,2.70
2024-05-09T12:18:14.556Z,2.60
2024-05-09T12:20:42.818Z,2.80
2024-05-09T12:23:13.906Z,2.78
2024-05-09T12:25:44.145Z,2.35
2024-05-09T12:28:14.050Z,2.38
2024-05-09T12:30:41.803Z,2.70
2024-05-09T12:33:13.277Z,2.50
2024-05-09T12:35:44.225Z,2.72
2024-05-09T12:38:16.535Z,2.17
2024-05-09T12:40:46.334Z,3.58
2024-05-09T12:43:16.237Z,3.00
2024-05-09T12:45:43.587Z,2.15
2024-05-09T12:48:13.700Z,2.15
2024-05-09T12:50:41.907Z,2.42
2024-05-09T12:53:12.190Z,2.20
2024-05-09T12:55:48.128Z,2.30
2024-05-09T12:58:26.366Z,2.33
2024-05-09T13:00:53.815Z,2.42
2024-05-09T13:03:24.226Z,2.65
2024-05-09T13:05:52.364Z,2.92
2024-05-09T13:08:23.066Z,2.70
2024-05-09T13:10:50.992Z,1.95
2024-05-09T13:13:20.962Z,2.67
2024-05-09T13:15:50.976Z,2.10
2024-05-09T13:18:21.002Z,2.30
2024-05-09T13:20:48.404Z,1.95
2024-05-09T13:23:18.298Z,2.08
2024-05-09T13:25:46.124Z,2.25
2024-05-09T13:28:16.366Z,2.22
2024-05-09T13:30:43.665Z,2.35
2024-05-09T13:33:16.260Z,1.80
2024-05-09T13:35:47.562Z,2.50
2024-05-09T13:38:21.784Z,2.20
2024-05-09T13:40:51.819Z,2.63
2024-05-09T13:43:19.290Z,1.83
2024-05-09T13:45:50.372Z,2.05
2024-05-09T13:48:20.799Z,1.55
2024-05-09T13:50:50.812Z,1.80
2024-05-09T13:53:17.952Z,2.15
2024-05-09T13:55:48.103Z,1.95
2024-05-09T13:58:15.726Z,2.70
2024-05-09T14:00:48.749Z,2.53
2024-05-09T14:03:18.998Z,2.88
2024-05-09T14:05:53.057Z,2.28
2024-05-09T14:08:22.445Z,2.40
2024-05-09T14:10:53.698Z,2.03
2024-05-09T14:13:21.207Z,1.98
2024-05-09T14:15:51.320Z,2.08
2024-05-09T14:18:19.130Z,1.83
2024-05-09T14:20:51.589Z,2.28
2024-05-09T14:23:18.974Z,2.28
2024-05-09T14:25:53.145Z,2.25
2024-05-09T14:28:21.871Z,2.03
2024-05-09T14:30:51.728Z,1.85
2024-05-09T14:33:25.356Z,2.10
2024-05-09T14:35:57.961Z,2.45
2024-05-09T14:38:26.956Z,2.50
2024-05-09T14:40:56.978Z,2.22
2024-05-09T14:43:24.569Z,1.63
2024-05-09T14:45:55.851Z,1.98
2024-05-09T14:48:23.279Z,2.22
2024-05-09T14:50:53.299Z,1.83
2024-05-09T14:53:23.691Z,2.13
2024-05-09T14:55:53.550Z,1.70
2024-05-09T14:58:21.232Z,1.48
2024-05-09T15:00:52.116Z,2.00
2024-05-09T15:03:21.654Z,2.10
2024-05-09T15:05:52.571Z,2.17
2024-05-09T15:08:23.078Z,1.70
2024-05-09T15:10:53.207Z,2.45
2024-05-09T15:13:21.288Z,2.38
2024-05-09T15:15:51.412Z,1.80
2024-05-09T15:18:19.159Z,2.55
2024-05-09T15:20:50.045Z,2.50
2024-05-09T15:23:17.313Z,2.42
2024-05-09T15:25:50.126Z,2.42
2024-05-09T15:28:18.074Z,2.40
2024-05-09T15:30:48.374Z,1.90
2024-05-09T15:33:16.144Z,2.10
2024-05-09T15:35:46.704Z,2.28
2024-05-09T15:38:15.104Z,1.98
2024-05-09T15:40:45.045Z,2.03
2024-05-09T15:43:15.018Z,3.00
2024-05-09T15:45:44.971Z,2.47
2024-05-09T15:48:12.992Z,2.38
2024-05-09T15:50:43.247Z,2.30
2024-05-09T15:53:12.388Z,2.15
2024-05-09T15:55:43.120Z,2.00
2024-05-09T15:58:10.658Z,2.28
2024-05-09T16:00:45.658Z,2.58
2024-05-09T16:03:15.182Z,2.53
2024-05-09T16:05:47.183Z,2.45
2024-05-09T16:08:15.984Z,2.10
2024-05-09T16:10:46.848Z,2.40
2024-05-09T16:13:15.350Z,2.75
2024-05-09T16:15:48.626Z,2.72
2024-05-09T16:18:16.251Z,2.75
2024-05-09T16:20:48.526Z,2.58
2024-05-09T16:23:17.549Z,2.40
2024-05-09T16:25:48.231Z,2.92
2024-05-09T16:28:16.497Z,3.13
2024-05-09T16:30:49.126Z,2.83
2024-05-09T16:33:19.382Z,2.75
2024-05-09T16:35:49.759Z,2.70
2024-05-09T16:38:17.237Z,3.72
2024-05-09T16:40:47.131Z,3.22
2024-05-09T16:43:14.461Z,3.50
2024-05-09T16:45:46.152Z,3.63
2024-05-09T16:48:16.441Z,3.58
2024-05-09T16:50:46.252Z,3.97
2024-05-09T16:53:13.708Z,3.53
2024-05-09T16:55:43.640Z,3.08
2024-05-09T16:58:12.429Z,3.45
2024-05-09T17:00:43.911Z,3.20
2024-05-09T17:03:15.990Z,3.88
2024-05-09T17:05:47.854Z,3.88
2024-05-09T17:08:16.769Z,3.80
2024-05-09T17:10:48.328Z,3.75
2024-05-09T17:13:19.317Z,3.85
2024-05-09T17:15:50.225Z,3.78
2024-05-09T17:18:23.106Z,3.58
2024-05-09T17:20:51.483Z,3.70
2024-05-09T17:23:21.349Z,3.33
2024-05-09T17:25:48.610Z,3.20
2024-05-09T17:28:19.079Z,3.53
2024-05-09T17:30:46.620Z,3.80
2024-05-09T17:33:16.744Z,3.38
2024-05-09T17:35:50.372Z,3.10
2024-05-09T17:38:22.847Z,3.17
2024-05-09T17:40:50.853Z,3.63
2024-05-09T17:43:20.927Z,3.45
2024-05-09T17:45:48.478Z,3.70
2024-05-09T17:48:20.317Z,3.08
2024-05-09T17:50:51.421Z,2.92
2024-05-09T17:53:21.543Z,3.08
2024-05-09T17:55:50.994Z,3.65
2024-05-09T17:58:20.921Z,3.65
2024-05-09T18:00:48.466Z,2.83
2024-05-09T18:03:18.666Z,3.13
2024-05-09T18:05:46.034Z,3.25
2024-05-09T18:08:18.511Z,4.07
2024-05-09T18:10:45.942Z,3.25
2024-05-09T18:13:16.946Z,3.03
2024-05-09T18:15:45.300Z,3.60
2024-05-09T18:18:15.762Z,4.57
2024-05-09T18:20:45.606Z,3.38
2024-05-09T18:23:19.809Z,3.40
2024-05-09T18:25:48.088Z,3.50
2024-05-09T18:28:19.022Z,2.88
2024-05-09T18:30:46.610Z,3.35
2024-05-09T18:33:17.046Z,3.42
2024-05-09T18:35:45.316Z,3.30
2024-05-09T18:38:18.447Z,3.55
2024-05-09T18:40:49.563Z,2.80
2024-05-09T18:43:25.922Z,3.30
2024-05-09T18:45:56.591Z,2.72
2024-05-09T18:48:27.906Z,3.03
2024-05-09T18:50:55.434Z,3.45
2024-05-09T18:53:25.588Z,3.17
2024-05-09T18:55:58.103Z,3.67
2024-05-09T18:58:28.141Z,3.40
2024-05-09T19:00:57.726Z,4.63
2024-05-09T19:03:29.436Z,3.97
2024-05-09T19:05:57.162Z,4.78
2024-05-09T19:08:28.414Z,4.65
2024-05-09T19:10:58.716Z,4.30
2024-05-09T19:13:28.641Z,3.97
2024-05-09T19:15:56.386Z,3.83
2024-05-09T19:18:26.351Z,3.88
2024-05-09T19:20:53.785Z,4.30
2024-05-09T19:23:23.935Z,4.47
2024-05-09T19:25:51.146Z,4.65
2024-05-09T19:28:23.658Z,4.72
2024-05-09T19:30:51.506Z,4.93
2024-05-09T19:33:21.653Z,5.50
2024-05-09T19:35:49.060Z,4.82
2024-05-09T19:38:19.056Z,5.65
2024-05-09T19:40:46.805Z,4.68
2024-05-09T19:43:16.760Z,4.35
2024-05-09T19:45:47.193Z,4.63
2024-05-09T19:48:17.805Z,5.05
2024-05-09T19:50:46.246Z,5.60
2024-05-09T19:53:16.988Z,5.95
2024-05-09T19:55:44.286Z,5.45
2024-05-09T19:58:14.273Z,6.45
2024-05-09T20:00:43.560Z,6.75
2024-05-09T20:03:17.613Z,7.05
2024-05-09T20:05:46.819Z,6.97
2024-05-09T20:08:17.293Z,7.22
2024-05-09T20:10:44.839Z,8.27
2024-05-09T20:13:16.485Z,7.18
2024-05-09T20:15:51.182Z,7.18
2024-05-09T20:18:24.241Z,7.35
2024-05-09T20:20:54.401Z,6.70
2024-05-09T20:23:22.024Z,5.82
2024-05-09T20:25:51.946Z,6.13
2024-05-09T20:28:21.746Z,6.63
2024-05-09T20:30:52.451Z,6.05
2024-05-09T20:33:20.543Z,5.85
2024-05-09T20:36:01.656Z,5.65
2024-05-09T20:38:30.617Z,5.50
2024-05-09T20:41:04.198Z,6.20
2024-05-09T20:43:31.429Z,6.15
2024-05-09T20:46:01.591Z,6.03
2024-05-09T20:48:29.033Z,6.10
2024-05-09T20:51:01.445Z,5.55
2024-05-09T20:53:28.589Z,6.53
2024-05-09T20:55:58.463Z,6.05
2024-05-09T20:58:26.996Z,6.55
2024-05-09T21:00:57.912Z,6.07
2024-05-09T21:03:25.799Z,6.20
2024-05-09T21:05:55.643Z,6.47
2024-05-09T21:08:27.010Z,5.57
2024-05-09T21:10:57.672Z,6.55
2024-05-09T21:13:25.685Z,6.22
2024-05-09T21:15:56.549Z,6.40
2024-05-09T21:18:24.533Z,6.72
2024-05-09T21:20:54.541Z,5.72
2024-05-09T21:23:26.087Z,6.80
2024-05-09T21:25:57.295Z,5.32
2024-05-09T21:28:27.146Z,5.38
2024-05-09T21:30:59.116Z,5.78
2024-05-09T21:33:37.398Z,6.25
2024-05-09T21:36:05.540Z,6.05
2024-05-09T21:38:38.962Z,5.78
2024-05-09T21:41:08.140Z,6.00
2024-05-09T21:43:38.515Z,6.28
2024-05-09T21:46:06.972Z,6.43
2024-05-09T21:48:38.960Z,5.93
2024-05-09T21:51:14.193Z,6.32
2024-05-09T21:53:46.996Z,6.40
2024-05-09T21:56:14.462Z,6.47
2024-05-09T21:58:44.875Z,5.50
2024-05-09T22:01:12.459Z,7.00
2024-05-09T22:03:42.472Z,5.95
2024-05-09T22:06:10.128Z,6.10
2024-05-09T22:08:41.593Z,5.85
2024-05-09T22:11:13.363Z,7.18
2024-05-09T22:13:43.605Z,5.80
2024-05-09T22:16:11.999Z,5.70
2024-05-09T22:18:41.942Z,5.95
2024-05-09T22:21:09.363Z,6.43
2024-05-09T22:23:39.935Z,6.30
2024-05-09T22:26:07.383Z,5.53
2024-05-09T22:28:40.893Z,5.97
2024-05-09T22:31:08.922Z,6.97
2024-05-09T22:33:39.105Z,6.35
2024-05-09T22:36:08.548Z,5.65
2024-05-09T22:38:38.339Z,6.70
2024-05-09T22:41:06.467Z,7.18
2024-05-09T22:43:36.465Z,6.38
2024-05-09T22:46:06.331Z,6.10
2024-05-09T22:48:36.461Z,7.03
2024-05-09T22:51:05.360Z,6.32
2024-05-09T22:53:35.608Z,6.72
2024-05-09T22:56:02.988Z,6.43
2024-05-09T22:58:32.746Z,6.53
2024-05-09T23:01:00.211Z,6.50
2024-05-09T23:03:32.919Z,7.30
2024-05-09T23:06:00.640Z,5.78
2024-05-09T23:08:30.707Z,6.57
2024-05-09T23:10:57.927Z,6.85
2024-05-09T23:13:27.949Z,6.80
2024-05-09T23:15:55.237Z,6.55
2024-05-09T23:18:25.043Z,6.72
2024-05-09T23:20:55.002Z,7.32
2024-05-09T23:23:24.745Z,7.05
2024-05-09T23:25:52.611Z,7.30
2024-05-09T23:28:22.830Z,6.90
2024-05-09T23:30:50.255Z,7.50
2024-05-09T23:33:20.146Z,7.93
2024-05-09T23:35:47.471Z,7.18
2024-05-09T23:38:22.460Z,7.15
2024-05-09T23:40:51.262Z,7.47
2024-05-09T23:43:21.402Z,7.60
2024-05-09T23:45:48.655Z,7.88
2024-05-09T23:48:18.632Z,9.00
2024-05-09T23:50:46.088Z,8.15
2024-05-09T23:53:16.418Z,7.65
2024-05-09T23:55:46.307Z,8.07
2024-05-09T23:58:16.202Z,7.47
